Time;durP1;ratioP1;P1;durP2;ratioP2;P2;SDS_P1;SDS_P2;PMS_P1;PMS_P2;Temp;Humidity;BMP_temperature;BMP_pressure;BME280_temperature;BME280_humidity;BME280_pressure;Samples;Min_cycle;Max_cycle;Signal;HPM_P1;HPM_P2
2023/12/26 00:00:51;;;;;;;2.53;1.30;;;9.50;72.60;;;11.22;53.93;97337.56;5034927;28;20045;-55
2023/12/26 00:03:19;;;;;;;2.60;1.80;;;9.50;72.70;;;11.23;54.16;97341.06;5033761;28;20045;-55
2023/12/26 00:05:47;;;;;;;2.50;1.60;;;9.50;72.70;;;11.26;54.00;97337.22;5034674;28;20052;-55
2023/12/26 00:08:14;;;;;;;2.53;1.70;;;9.50;72.60;;;11.26;54.21;97335.38;5034239;28;20053;-56
2023/12/26 00:10:42;;;;;;;2.67;1.70;;;9.50;72.30;;;11.22;53.85;97326.91;5034876;28;20053;-55
2023/12/26 00:13:10;;;;;;;5.30;2.20;;;9.50;72.30;;;11.15;54.01;97328.59;5034327;28;20080;-56
2023/12/26 00:15:37;;;;;;;4.17;1.60;;;9.40;72.90;;;11.18;54.21;97328.22;5034159;28;20041;-56
2023/12/26 00:18:05;;;;;;;5.20;1.70;;;9.40;72.80;;;11.14;53.83;97334.09;5032704;28;20045;-56
2023/12/26 00:20:34;;;;;;;2.23;1.77;;;9.40;72.80;;;11.11;54.11;97326.44;5033998;28;20045;-55
2023/12/26 00:23:02;;;;;;;2.70;1.70;;;9.40;72.70;;;11.13;54.33;97324.47;5033781;28;20045;-56
2023/12/26 00:25:29;;;;;;;2.17;1.40;;;9.40;72.80;;;11.13;54.54;97324.47;5034331;28;20401;-55
2023/12/26 00:27:57;;;;;;;2.67;1.60;;;9.50;73.00;;;11.14;54.38;97323.44;5033796;28;20425;-55
2023/12/26 00:30:25;;;;;;;3.07;1.50;;;9.50;73.10;;;11.16;54.31;97319.59;5032822;28;20045;-56
2023/12/26 00:32:53;;;;;;;4.80;3.07;;;9.50;73.20;;;11.17;54.72;97321.25;5032582;28;20053;-55
2023/12/26 00:35:21;;;;;;;4.33;2.23;;;9.50;73.20;;;11.17;54.37;97318.59;5033757;28;20056;-56
2023/12/26 00:37:48;;;;;;;6.93;3.20;;;9.50;73.20;;;11.18;54.29;97311.44;5032874;28;20049;-56
2023/12/26 00:40:16;;;;;;;7.53;3.30;;;9.50;73.40;;;11.20;54.32;97304.09;5032558;28;20053;-56
2023/12/26 00:42:45;;;;;;;6.77;4.00;;;9.50;73.30;;;11.23;54.61;97309.09;5032253;28;20053;-56
2023/12/26 00:45:14;;;;;;;7.60;3.53;;;9.50;73.30;;;11.23;54.34;97309.91;5033721;28;20097;-56
2023/12/26 00:47:41;;;;;;;6.73;2.50;;;9.40;73.40;;;11.25;54.28;97309.72;5032305;28;20053;-52
2023/12/26 00:50:11;;;;;;;2.57;1.60;;;9.50;73.20;;;11.27;54.53;97306.91;5032615;28;20057;-53
2023/12/26 00:52:40;;;;;;;2.40;1.60;;;9.50;73.20;;;11.25;54.52;97311.56;5031851;28;20080;-54
2023/12/26 00:55:08;;;;;;;3.90;1.60;;;9.50;73.60;;;11.26;54.21;97311.38;5032102;28;20046;-55
2023/12/26 00:57:36;;;;;;;3.53;2.23;;;9.50;73.50;;;11.27;54.67;97314.91;5033265;28;20414;-52
2023/12/26 01:00:05;;;;;;;2.40;1.53;;;9.50;73.40;;;11.28;54.29;97313.88;5032015;28;20050;-56
2023/12/26 01:02:33;;;;;;;2.40;1.50;;;9.50;73.70;;;11.27;54.41;97313.06;5033121;28;20138;-56
2023/12/26 01:05:01;;;;;;;5.50;2.20;;;9.50;73.60;;;11.29;54.74;97321.72;5031335;28;20053;-56
2023/12/26 01:07:29;;;;;;;3.33;1.43;;;9.50;73.90;;;11.28;54.32;97320.03;5031861;28;20056;-55
2023/12/26 01:10:00;;;;;;;3.60;1.73;;;9.50;73.80;;;11.27;54.58;97328.22;5031751;28;20049;-56
2023/12/26 01:12:29;;;;;;;3.37;1.93;;;9.40;73.90;;;11.26;54.36;97339.88;5031630;28;20053;-56
2023/12/26 01:14:57;;;;;;;3.47;1.77;;;9.40;74.10;;;11.25;54.76;97333.72;5033059;28;20042;-56
2023/12/26 01:17:26;;;;;;;3.10;1.90;;;9.50;73.80;;;11.27;54.67;97339.72;5032929;28;20037;-55
2023/12/26 01:19:53;;;;;;;2.87;1.57;;;9.50;73.60;;;11.23;54.93;97341.88;5031466;28;20477;-55
2023/12/26 01:22:21;;;;;;;2.63;1.40;;;9.40;73.90;;;11.18;54.60;97340.72;5033018;28;20045;-56
2023/12/26 01:24:51;;;;;;;3.83;1.90;;;9.40;74.20;;;11.17;54.71;97347.09;5031573;28;20041;-56
2023/12/26 01:27:18;;;;;;;5.17;1.73;;;9.40;74.40;;;11.17;54.69;97349.75;5032574;28;20528;-56
2023/12/26 01:29:48;;;;;;;7.67;2.77;;;9.40;74.20;;;11.14;54.64;97345.56;5031162;28;20061;-56
2023/12/26 01:32:16;;;;;;;4.40;1.80;;;9.40;74.10;;;11.14;54.69;97344.75;5031735;28;20046;-56
2023/12/26 01:34:44;;;;;;;2.13;1.40;;;9.40;74.40;;;11.12;54.83;97354.75;5032579;28;20531;-56
2023/12/26 01:37:11;;;;;;;2.03;1.83;;;9.40;74.20;;;11.14;54.65;97358.06;5031119;28;20057;-55
2023/12/26 01:39:39;;;;;;;4.07;1.47;;;9.40;74.10;;;11.13;54.59;97364.41;5032410;28;20042;-53
2023/12/26 01:42:07;;;;;;;1.30;1.20;;;9.30;74.30;;;11.09;54.75;97368.41;5031430;28;20425;-55
2023/12/26 01:44:35;;;;;;;1.70;1.10;;;9.30;74.60;;;11.04;54.82;97374.25;5030930;28;20497;-55
2023/12/26 01:47:03;;;;;;;2.00;1.07;;;9.30;75.00;;;10.96;55.44;97375.09;5032534;28;20049;-55
2023/12/26 01:49:31;;;;;;;1.90;1.37;;;9.20;75.70;;;10.99;55.36;97374.78;5031049;28;20045;-55
2023/12/26 01:51:59;;;;;;;2.20;1.30;;;9.20;75.70;;;11.01;55.21;97377.25;5014808;28;20053;-56
2023/12/26 01:54:31;;;;;;;2.10;1.00;;;9.20;75.50;;;10.90;55.13;97377.63;5032511;28;20045;-54
2023/12/26 01:56:59;;;;;;;2.37;1.60;;;9.20;74.70;;;10.87;54.92;97380.63;5006422;28;20066;-56
2023/12/26 01:59:27;;;;;;;1.40;1.30;;;9.20;73.70;;;10.76;55.01;97379.97;5013877;28;20072;-54
2023/12/26 02:01:55;;;;;;;1.53;1.10;;;9.20;73.00;;;10.79;54.53;97376.13;5030247;28;20056;-56
2023/12/26 02:04:22;;;;;;;3.27;1.40;;;9.20;73.30;;;10.77;54.73;97384.28;5014457;28;20061;-56
2023/12/26 02:06:51;;;;;;;1.53;0.90;;;9.20;72.40;;;10.79;54.61;97382.28;5030771;28;20061;-56
2023/12/26 02:09:18;;;;;;;3.77;1.00;;;9.30;71.90;;;10.81;54.57;97374.97;5030648;28;20532;-56
2023/12/26 02:11:46;;;;;;;4.50;1.30;;;9.30;72.00;;;10.68;54.54;97379.13;5031951;28;20038;-56
2023/12/26 02:14:13;;;;;;;2.20;1.13;;;9.20;71.70;;;10.71;54.69;97382.31;5030387;28;20060;-56
2023/12/26 02:16:43;;;;;;;5.53;1.30;;;9.30;71.10;;;10.73;54.54;97388.28;5013385;28;20061;-54
2023/12/26 02:19:11;;;;;;;2.10;1.13;;;9.30;71.20;;;10.78;54.40;97374.50;5014593;28;20509;-55
2023/12/26 02:21:38;;;;;;;2.17;1.47;;;9.30;71.10;;;10.81;53.72;97379.47;5030563;28;20064;-55
2023/12/26 02:24:07;;;;;;;1.77;1.30;;;9.30;70.20;;;10.73;53.28;97382.97;5030425;28;20057;-56
2023/12/26 02:26:40;;;;;;;4.67;1.27;;;9.30;69.30;;;10.75;53.98;97396.13;5030521;28;20052;-56
2023/12/26 02:29:08;;;;;;;3.10;1.65;;;9.40;69.20;;;10.78;53.34;97377.16;5007784;28;20453;-56
2023/12/26 02:31:39;;;;;;;1.60;1.13;;;9.40;69.10;;;10.77;53.08;97378.13;5013613;28;20061;-57
2023/12/26 02:34:07;;;;;;;1.43;1.20;;;9.40;67.90;;;10.74;53.52;97370.47;5030591;28;20422;-55
2023/12/26 02:36:35;;;;;;;5.77;1.20;;;9.30;69.20;;;10.68;53.17;97382.63;5030246;28;20041;-55
2023/12/26 02:39:03;;;;;;;2.03;1.20;;;9.30;68.20;;;10.44;53.35;97379.00;5023365;28;20050;-55
2023/12/26 02:41:31;;;;;;;2.67;1.37;;;9.10;68.20;;;10.26;53.63;97404.91;5030282;28;20041;-55
2023/12/26 02:43:58;;;;;;;2.60;1.33;;;9.00;68.10;;;10.24;53.75;97396.25;5030197;28;20046;-56
2023/12/26 02:46:26;;;;;;;4.67;1.70;;;9.10;68.50;;;10.35;53.68;97374.69;5013713;28;20049;-56
2023/12/26 02:48:55;;;;;;;3.23;1.27;;;9.10;68.20;;;10.07;53.48;97392.75;5013577;28;20045;-56
2023/12/26 02:51:23;;;;;;;3.07;1.40;;;9.00;67.40;;;10.13;53.90;97380.63;5030574;28;20583;-53
2023/12/26 02:53:51;;;;;;;2.40;1.40;;;9.10;68.30;;;10.36;53.35;97391.47;5030100;28;20045;-56
2023/12/26 02:56:19;;;;;;;5.17;1.20;;;9.10;68.20;;;10.42;52.94;97390.81;5030236;28;20532;-56
2023/12/26 02:58:47;;;;;;;4.30;1.60;;;9.20;67.60;;;10.40;52.66;97403.44;5031038;28;20477;-55
2023/12/26 03:01:14;;;;;;;2.60;1.33;;;9.20;66.70;;;10.48;52.78;97389.31;5030650;28;20053;-53
2023/12/26 03:03:42;;;;;;;2.67;1.47;;;9.20;67.50;;;10.59;52.88;97381.81;5029680;28;20045;-56
2023/12/26 03:06:10;;;;;;;3.87;1.50;;;9.30;67.00;;;10.62;52.25;97386.81;5029351;28;20045;-54
2023/12/26 03:08:38;;;;;;;1.43;1.10;;;9.30;66.60;;;10.66;52.50;97389.94;5030477;28;20421;-56
2023/12/26 03:11:05;;;;;;;1.43;1.13;;;9.40;66.60;;;10.71;52.18;97392.94;5029680;28;20049;-54
2023/12/26 03:13:34;;;;;;;2.60;1.30;;;9.40;66.50;;;10.63;51.80;97390.31;5029484;28;20053;-56
2023/12/26 03:16:01;;;;;;;3.63;1.40;;;9.30;64.80;;;10.71;51.67;97394.78;5030905;28;20034;-56
2023/12/26 03:18:29;;;;;;;7.57;1.90;;;9.40;66.20;;;10.74;52.11;97397.09;5029606;28;20041;-56
2023/12/26 03:20:57;;;;;;;1.60;1.23;;;9.40;66.30;;;10.77;51.94;97392.28;5029392;28;20041;-56
2023/12/26 03:23:24;;;;;;;3.73;1.20;;;9.40;65.80;;;10.78;51.81;97383.31;5029226;28;20425;-54
2023/12/26 03:25:52;;;;;;;5.30;1.70;;;9.40;66.00;;;10.83;51.75;97378.28;5029440;28;20041;-55
2023/12/26 03:28:20;;;;;;;3.33;1.40;;;9.50;65.60;;;10.87;51.85;97396.59;5030470;28;20034;-56
2023/12/26 03:30:47;;;;;;;3.97;2.17;;;9.50;65.50;;;10.84;51.62;97377.28;5029610;28;20288;-53
2023/12/26 03:33:15;;;;;;;3.63;1.30;;;9.50;65.90;;;10.87;51.82;97392.09;5029300;28;20041;-56
2023/12/26 03:35:43;;;;;;;2.77;1.20;;;9.50;65.30;;;10.82;51.49;97386.47;5028871;28;20044;-55
2023/12/26 03:38:10;;;;;;;4.67;2.00;;;9.50;65.60;;;10.84;51.48;97382.63;5029863;28;20030;-56
2023/12/26 03:40:39;;;;;;;4.07;1.87;;;9.50;65.30;;;10.79;51.80;97373.47;5028976;28;20048;-56
2023/12/26 03:43:07;;;;;;;5.73;1.50;;;9.50;65.60;;;10.80;51.78;97378.63;5030347;28;20068;-54
2023/12/26 03:45:34;;;;;;;11.90;1.97;;;9.50;65.80;;;10.66;51.50;97376.63;5028832;28;20033;-55
2023/12/26 03:48:05;;;;;;;4.63;1.60;;;9.40;65.60;;;10.77;51.64;97383.47;5028931;28;20058;-56
2023/12/26 03:50:34;;;;;;;5.77;1.83;;;9.40;65.60;;;10.75;51.88;97380.13;5029679;28;20521;-56
2023/12/26 03:53:01;;;;;;;3.63;2.03;;;9.50;65.60;;;10.72;51.86;97391.13;5029274;28;20505;-56
2023/12/26 03:55:29;;;;;;;3.43;1.60;;;9.50;65.60;;;10.60;51.84;97390.63;5030014;28;20029;-56
2023/12/26 03:57:57;;;;;;;4.67;1.87;;;9.40;65.80;;;10.57;51.81;97385.66;5028489;28;20046;-56
2023/12/26 04:00:24;;;;;;;5.13;2.00;;;9.40;65.60;;;10.62;52.14;97384.16;5029161;28;20056;-56
2023/12/26 04:02:52;;;;;;;4.70;1.80;;;9.40;65.80;;;10.67;52.11;97377.50;5029302;28;20051;-56
2023/12/26 04:05:21;;;;;;;3.80;1.83;;;9.40;66.10;;;10.75;52.33;97380.97;5013000;28;20037;-55
2023/12/26 04:07:48;;;;;;;3.03;1.37;;;9.50;66.20;;;10.73;51.85;97369.66;5028936;28;20492;-56
2023/12/26 04:10:16;;;;;;;2.43;1.40;;;9.50;65.90;;;10.73;51.90;97385.63;5029238;28;20045;-58
2023/12/26 04:12:44;;;;;;;5.27;1.73;;;9.50;65.70;;;10.71;51.81;97387.63;5029031;28;20049;-55
2023/12/26 04:15:13;;;;;;;6.13;1.90;;;9.40;66.10;;;10.66;51.69;97383.81;5022939;28;20033;-56
2023/12/26 04:17:41;;;;;;;4.33;1.97;;;9.50;65.80;;;10.59;52.36;97394.31;5029428;28;20444;-55
2023/12/26 04:20:09;;;;;;;6.53;1.93;;;9.40;66.00;;;10.60;52.18;97388.81;5029057;28;20037;-55
2023/12/26 04:22:37;;;;;;;7.73;2.07;;;9.40;66.10;;;10.66;52.23;97397.13;5028851;28;20068;-55
2023/12/26 04:25:07;;;;;;;8.87;2.63;;;9.40;65.70;;;10.65;51.75;97382.97;5028995;28;20496;-54
2023/12/26 04:27:35;;;;;;;4.17;1.60;;;9.50;65.90;;;10.64;52.26;97407.94;5029347;28;20072;-55
2023/12/26 04:30:03;;;;;;;4.47;1.70;;;9.40;65.70;;;10.47;52.36;97385.81;5028744;28;20527;-55
2023/12/26 04:32:31;;;;;;;3.73;1.83;;;9.40;65.80;;;10.43;52.64;97387.97;5029313;28;20049;-55
2023/12/26 04:34:59;;;;;;;4.20;1.90;;;9.40;66.30;;;10.61;52.21;97385.16;5029712;28;20265;-56
2023/12/26 04:37:27;;;;;;;3.33;2.37;;;9.40;66.30;;;10.58;52.17;97390.78;5029145;28;20045;-56
2023/12/26 04:39:54;;;;;;;4.47;2.20;;;9.40;66.20;;;10.65;52.11;97398.94;5030652;28;20037;-55
2023/12/26 04:42:22;;;;;;;4.40;1.70;;;9.50;66.20;;;10.63;52.22;97390.31;5015994;28;20412;-56
2023/12/26 04:44:50;;;;;;;3.33;1.90;;;9.40;66.40;;;10.68;51.98;97387.94;5024611;28;20501;-56
2023/12/26 04:47:17;;;;;;;4.07;1.60;;;9.50;66.00;;;10.71;51.46;97408.94;5032763;28;20528;-56
2023/12/26 04:49:45;;;;;;;2.77;1.70;;;9.50;65.50;;;10.67;51.83;97406.78;5033501;28;20058;-56
2023/12/26 04:52:12;;;;;;;4.43;1.70;;;9.50;66.00;;;10.72;52.18;97409.75;5033336;28;20052;-55
2023/12/26 04:54:40;;;;;;;6.77;2.80;;;9.50;66.30;;;10.71;51.91;97419.56;5032366;28;20045;-56
2023/12/26 04:57:10;;;;;;;4.00;1.80;;;9.50;66.40;;;10.71;51.66;97408.09;5031293;28;20041;-55
2023/12/26 04:59:38;;;;;;;4.57;1.90;;;9.50;66.20;;;10.78;51.76;97391.28;5032138;28;20420;-54
2023/12/26 05:02:06;;;;;;;3.87;1.70;;;9.50;65.90;;;10.80;51.94;97386.63;5031756;28;20413;-56
2023/12/26 05:04:35;;;;;;;4.30;1.60;;;9.50;66.00;;;10.80;51.70;97389.28;5032313;28;20052;-57
2023/12/26 05:07:03;;;;;;;4.67;1.83;;;9.50;65.60;;;10.81;51.43;97398.91;5033456;28;20046;-55
2023/12/26 05:09:30;;;;;;;3.23;1.50;;;9.60;65.40;;;10.78;51.38;97399.28;5032038;28;20048;-56
2023/12/26 05:11:59;;;;;;;3.67;1.57;;;9.50;65.90;;;10.77;51.53;97407.44;5032207;28;20049;-56
2023/12/26 05:14:27;;;;;;;6.13;1.83;;;9.50;65.50;;;10.68;51.60;97398.59;5033105;28;20041;-57
2023/12/26 05:16:55;;;;;;;16.90;2.57;;;9.50;65.80;;;10.67;52.00;97390.81;5031760;28;20054;-55
2023/12/26 05:19:23;;;;;;;2.40;1.33;;;9.40;65.90;;;10.62;51.84;97394.81;5031479;28;20045;-55
2023/12/26 05:21:51;;;;;;;4.83;1.70;;;9.40;65.60;;;10.69;51.87;97389.63;5031737;28;20082;-56
2023/12/26 05:24:21;;;;;;;3.87;1.67;;;9.50;66.10;;;10.75;51.86;97418.25;5023608;28;20228;-56
2023/12/26 05:26:49;;;;;;;5.20;2.27;;;9.50;65.80;;;10.61;51.81;97393.13;5023528;28;20053;-55
2023/12/26 05:29:16;;;;;;;3.87;1.63;;;9.40;65.80;;;10.62;51.88;97408.13;5031268;28;20037;-57
2023/12/26 05:31:44;;;;;;;2.47;1.40;;;9.40;65.80;;;10.64;51.56;97408.78;5031479;28;20045;-55
2023/12/26 05:34:12;;;;;;;5.67;1.50;;;9.40;65.30;;;10.71;51.43;97424.06;5015473;28;20448;-54
2023/12/26 05:36:40;;;;;;;5.40;1.90;;;9.40;65.60;;;10.73;51.90;97419.41;5031476;28;20042;-55
2023/12/26 05:39:08;;;;;;;4.73;1.70;;;9.40;65.70;;;10.56;51.89;97424.72;5014675;28;20056;-56
2023/12/26 05:41:36;;;;;;;5.20;1.73;;;9.40;65.50;;;10.66;51.53;97431.72;5031371;28;20050;-56
2023/12/26 05:44:04;;;;;;;3.03;1.80;;;9.40;65.80;;;10.66;51.74;97429.88;5015043;28;20508;-55
2023/12/26 05:46:32;;;;;;;6.30;2.47;;;9.40;65.80;;;10.73;51.27;97435.38;5031545;28;20052;-56
2023/12/26 05:49:01;;;;;;;5.40;1.83;;;9.40;65.20;;;10.75;51.49;97430.72;5014512;28;20053;-56
2023/12/26 05:51:29;;;;;;;5.20;2.10;;;9.50;65.50;;;10.71;51.78;97437.38;5030048;28;20045;-55
2023/12/26 05:53:56;;;;;;;6.27;1.80;;;9.50;65.70;;;10.72;51.42;97436.38;5031292;28;20053;-56
2023/12/26 05:56:24;;;;;;;4.87;1.73;;;9.40;65.50;;;10.60;51.47;97433.22;5031945;28;20037;-54
2023/12/26 05:58:52;;;;;;;4.57;1.97;;;9.40;65.50;;;10.59;51.52;97429.72;5030779;28;20053;-57
2023/12/26 06:01:19;;;;;;;4.87;1.80;;;9.40;65.60;;;10.62;51.65;97433.88;5032364;28;20044;-56
2023/12/26 06:03:47;;;;;;;6.97;1.50;;;9.40;65.60;;;10.60;51.54;97418.09;5032017;28;20038;-55
2023/12/26 06:06:16;;;;;;;3.83;1.40;;;9.40;65.50;;;10.61;51.79;97419.75;5030962;28;20050;-55
2023/12/26 06:08:44;;;;;;;3.47;1.53;;;9.40;65.50;;;10.66;51.70;97418.41;5030522;28;20056;-55
2023/12/26 06:11:11;;;;;;;3.90;1.80;;;9.40;65.60;;;10.66;51.37;97423.75;5030838;28;20050;-53
2023/12/26 06:13:40;;;;;;;4.00;1.60;;;9.40;65.40;;;10.73;51.44;97444.19;5030544;28;20052;-55
2023/12/26 06:16:08;;;;;;;3.57;1.63;;;9.50;65.30;;;10.66;51.82;97447.69;5031018;28;20053;-55
2023/12/26 06:18:36;;;;;;;2.83;2.07;;;9.40;65.50;;;10.67;51.45;97449.38;5030307;28;20050;-55
2023/12/26 06:21:04;;;;;;;3.43;1.83;;;9.40;65.40;;;10.71;51.65;97453.38;5030664;28;20049;-56
2023/12/26 06:23:32;;;;;;;4.03;1.53;;;9.40;65.10;;;10.71;51.66;97451.53;5030722;28;20056;-55
2023/12/26 06:26:00;;;;;;;7.83;2.80;;;9.40;65.40;;;10.76;51.26;97453.69;5030643;28;20048;-56
2023/12/26 06:28:28;;;;;;;5.30;1.60;;;9.40;65.50;;;10.71;51.21;97435.56;5029881;28;20045;-55
2023/12/26 06:30:55;;;;;;;3.77;1.63;;;9.40;65.00;;;10.71;51.46;97448.88;5030585;28;20057;-56
2023/12/26 06:33:23;;;;;;;5.20;2.40;;;9.40;65.10;;;10.65;51.26;97441.56;5029954;28;20045;-56
2023/12/26 06:35:52;;;;;;;4.80;1.90;;;9.40;64.90;;;10.62;51.53;97442.72;5030836;28;20432;-55
2023/12/26 06:38:20;;;;;;;4.43;1.70;;;9.40;65.40;;;10.69;51.61;97440.22;5031176;28;20054;-55
2023/12/26 06:40:47;;;;;;;7.17;1.80;;;9.40;65.60;;;10.74;51.21;97443.22;5030443;28;20045;-55
2023/12/26 06:43:15;;;;;;;3.37;1.63;;;9.40;65.30;;;10.74;51.35;97445.88;5029748;28;20046;-56
2023/12/26 06:45:43;;;;;;;7.27;2.47;;;9.50;65.30;;;10.76;51.37;97441.22;5013790;28;20048;-55
2023/12/26 06:48:11;;;;;;;5.17;1.73;;;9.40;65.30;;;10.75;51.41;97439.53;5013279;28;20057;-56
2023/12/26 06:50:39;;;;;;;3.33;2.37;;;9.50;65.30;;;10.77;51.31;97442.88;5031337;28;20041;-56
2023/12/26 06:53:06;;;;;;;3.20;1.43;;;9.40;65.50;;;10.79;51.39;97453.34;5029776;28;20084;-56
2023/12/26 06:55:34;;;;;;;6.80;1.80;;;9.50;65.50;;;10.81;50.86;97465.50;5029427;28;20077;-55
2023/12/26 06:58:02;;;;;;;6.27;1.90;;;9.50;65.10;;;10.79;51.37;97470.16;5029589;28;20049;-56
2023/12/26 07:00:29;;;;;;;3.67;1.67;;;9.40;65.60;;;10.73;51.54;97470.81;5013509;28;20052;-55
2023/12/26 07:02:57;;;;;;;5.13;2.03;;;9.40;65.50;;;10.82;51.11;97477.81;5029565;28;20053;-55
2023/12/26 07:05:25;;;;;;;5.07;1.57;;;9.40;65.00;;;10.71;51.45;97474.66;5031014;28;20038;-56
2023/12/26 07:07:53;;;;;;;6.80;1.67;;;9.40;65.30;;;10.80;51.41;97484.31;5029905;28;20053;-56
2023/12/26 07:10:21;;;;;;;3.93;1.57;;;9.40;65.40;;;10.75;51.54;97498.13;5031015;28;20064;-56
2023/12/26 07:12:48;;;;;;;5.50;1.87;;;9.40;65.30;;;10.78;51.32;97495.13;5031159;28;20052;-55
2023/12/26 07:15:18;;;;;;;2.53;1.50;;;9.40;65.40;;;10.80;51.06;97506.47;5031061;28;20057;-55
2023/12/26 07:17:46;;;;;;;3.63;1.57;;;9.40;64.90;;;10.82;51.24;97506.28;5031076;28;20041;-56
2023/12/26 07:20:14;;;;;;;3.60;1.63;;;9.50;65.40;;;10.84;51.06;97506.97;5030742;28;20528;-55
2023/12/26 07:22:42;;;;;;;4.50;1.90;;;9.40;65.10;;;10.88;50.78;97508.28;5030779;28;20543;-56
2023/12/26 07:25:10;;;;;;;3.77;2.33;;;9.50;65.20;;;10.93;50.88;97515.78;5030988;28;20046;-56
2023/12/26 07:27:38;;;;;;;4.90;1.50;;;9.50;65.10;;;10.93;50.85;97527.25;5031043;28;20097;-56
2023/12/26 07:30:06;;;;;;;6.00;1.53;;;9.50;64.90;;;10.85;50.63;97519.25;5029286;28;20056;-54
2023/12/26 07:32:34;;;;;;;3.87;1.57;;;9.50;65.20;;;10.88;50.61;97529.59;5030954;28;20053;-57
2023/12/26 07:35:02;;;;;;;3.47;1.60;;;9.40;65.40;;;10.92;50.76;97514.94;5028997;28;20053;-56
2023/12/26 07:37:32;;;;;;;6.63;2.83;;;9.50;65.50;;;10.95;50.84;97521.75;5022882;28;20052;-56
2023/12/26 07:40:00;;;;;;;3.87;1.33;;;9.50;65.10;;;10.97;50.96;97523.28;5030499;28;20042;-56
2023/12/26 07:42:27;;;;;;;7.60;2.40;;;9.50;65.40;;;10.98;50.97;97534.75;5028797;28;20057;-55
2023/12/26 07:44:56;;;;;;;2.37;1.50;;;9.50;65.40;;;10.99;50.45;97534.59;5031061;28;20494;-55
2023/12/26 07:47:24;;;;;;;4.97;2.13;;;9.50;65.10;;;10.96;51.04;97553.56;5030560;28;20046;-56
2023/12/26 07:49:51;;;;;;;6.70;2.27;;;9.50;65.00;;;10.97;50.48;97549.06;5030244;28;20045;-56
2023/12/26 07:52:19;;;;;;;4.80;1.80;;;9.50;65.40;;;10.99;50.76;97555.91;5028993;28;20049;-56
2023/12/26 07:54:47;;;;;;;5.47;2.00;;;9.50;65.40;;;10.99;50.85;97555.91;5030747;28;20479;-56
2023/12/26 07:57:15;;;;;;;4.33;1.50;;;9.50;65.30;;;10.88;51.19;97555.41;5029435;28;20049;-56
2023/12/26 07:59:42;;;;;;;4.73;1.80;;;9.50;65.70;;;10.88;51.06;97566.06;5030176;28;20040;-55
2023/12/26 08:02:10;;;;;;;3.60;1.83;;;9.50;65.70;;;10.96;50.93;97563.38;5030454;28;20041;-55
2023/12/26 08:04:38;;;;;;;3.33;1.57;;;9.50;65.60;;;10.98;51.04;97574.72;5030769;28;20049;-56
2023/12/26 08:07:07;;;;;;;5.57;1.83;;;9.50;65.50;;;10.95;50.91;97570.56;5030842;28;20346;-55
2023/12/26 08:09:35;;;;;;;4.30;2.00;;;9.50;65.50;;;10.80;51.36;97572.19;5021445;28;20041;-56
2023/12/26 08:12:04;;;;;;;7.53;1.97;;;9.40;65.40;;;10.87;51.46;97567.88;5030124;28;20057;-56
2023/12/26 08:14:32;;;;;;;4.03;1.80;;;9.50;65.90;;;10.92;51.35;97565.53;5030689;28;20045;-56
2023/12/26 08:16:59;;;;;;;3.00;1.60;;;9.50;65.70;;;10.96;51.30;97574.03;5034375;28;20060;-56
2023/12/26 08:19:27;;;;;;;8.87;2.43;;;9.50;65.60;;;10.97;51.03;97568.56;5034047;28;20437;-56
2023/12/26 08:21:55;;;;;;;5.80;1.70;;;9.60;65.80;;;11.02;50.99;97576.03;5034052;28;20464;-57
2023/12/26 08:24:23;;;;;;;5.80;1.63;;;9.60;65.80;;;10.82;51.17;97570.22;5034244;28;20041;-56
2023/12/26 08:26:54;;;;;;;6.00;1.73;;;9.50;65.10;;;10.89;51.19;97575.69;5032912;28;20038;-54
2023/12/26 08:29:22;;;;;;;5.00;1.70;;;9.60;65.60;;;10.92;51.25;97581.53;5032606;28;20079;-57
2023/12/26 08:31:49;;;;;;;5.80;1.80;;;9.60;65.50;;;10.94;51.23;97579.53;5016377;28;20049;-56
2023/12/26 08:34:17;;;;;;;4.63;1.60;;;9.60;65.80;;;10.95;51.64;97583.88;5034006;28;20054;-55
2023/12/26 08:36:45;;;;;;;3.33;2.03;;;9.60;66.00;;;10.95;51.26;97593.69;5034077;28;20050;-57
2023/12/26 08:39:12;;;;;;;2.07;1.43;;;9.60;65.80;;;11.02;51.16;97603.50;5033623;28;20052;-56
2023/12/26 08:41:41;;;;;;;3.73;1.80;;;9.60;65.80;;;10.97;51.21;97602.34;5033903;28;20037;-69
2023/12/26 08:44:10;;;;;;;2.87;1.67;;;9.60;66.00;;;11.06;51.40;97604.00;5033846;28;20524;-67
2023/12/26 08:46:39;;;;;;;4.50;2.30;;;9.70;65.60;;;11.02;51.16;97605.34;5025845;28;20056;-68
2023/12/26 08:49:06;;;;;;;4.33;2.10;;;9.70;65.90;;;11.05;51.63;97623.69;5032459;28;20394;-68
2023/12/26 08:51:41;;;;;;;4.67;1.80;;;9.70;65.90;;;11.06;51.29;97611.19;5033334;28;20045;-68
2023/12/26 08:54:11;;;;;;;2.93;1.73;;;9.70;66.00;;;11.03;51.50;97621.16;5032351;28;20053;-70
2023/12/26 08:56:40;;;;;;;3.00;1.60;;;9.70;66.20;;;10.78;52.17;97619.47;5016648;28;20048;-70
2023/12/26 08:59:08;;;;;;;3.07;1.37;;;9.50;66.80;;;10.91;51.91;97616.31;5033366;28;20045;-69
2023/12/26 09:01:36;;;;;;;3.40;1.70;;;9.60;66.70;;;10.96;52.25;97624.66;5033439;28;20497;-69
2023/12/26 09:04:04;;;;;;;4.77;1.57;;;9.60;66.80;;;10.95;52.19;97633.63;5032084;28;20053;-70
2023/12/26 09:06:32;;;;;;;2.83;1.43;;;9.60;66.90;;;11.00;51.70;97633.97;5033370;28;20046;-69
2023/12/26 09:09:00;;;;;;;5.43;2.27;;;9.60;67.00;;;10.99;51.82;97649.13;5033126;28;20049;-70
2023/12/26 09:11:28;;;;;;;6.40;2.00;;;9.60;67.10;;;10.98;52.10;97636.81;5033363;28;20417;-69
2023/12/26 09:13:56;;;;;;;4.03;1.83;;;9.60;67.20;;;11.07;52.20;97643.00;5033487;28;20049;-70
2023/12/26 09:16:24;;;;;;;2.87;1.97;;;9.70;67.50;;;11.13;51.82;97652.16;5032122;28;20046;-70
2023/12/26 09:18:51;;;;;;;3.13;1.70;;;9.70;67.40;;;11.18;52.31;97653.31;5032934;28;20048;-69
2023/12/26 09:21:19;;;;;;;4.27;1.77;;;9.70;67.50;;;11.25;51.95;97652.69;5033531;28;20053;-70
2023/12/26 09:23:47;;;;;;;4.80;1.47;;;9.80;67.30;;;11.22;51.64;97659.16;5033018;28;20037;-70
2023/12/26 09:26:22;;;;;;;5.70;1.77;;;9.80;67.40;;;11.26;51.76;97654.31;5032557;28;20041;-69
2023/12/26 09:28:50;;;;;;;5.80;1.70;;;9.80;67.30;;;11.22;52.32;97669.81;5026147;28;20511;-69
2023/12/26 09:31:18;;;;;;;3.93;2.40;;;9.80;67.60;;;11.12;52.13;97671.78;5033080;28;20037;-69
2023/12/26 09:33:46;;;;;;;3.03;1.60;;;9.70;68.10;;;11.06;52.42;97672.47;5031606;28;20041;-70
2023/12/26 09:36:14;;;;;;;6.50;1.77;;;9.70;68.10;;;11.03;52.30;97682.44;5032641;28;20064;-70
2023/12/26 09:38:42;;;;;;;4.13;1.30;;;9.70;68.10;;;11.01;52.63;97679.09;5024382;28;20033;-70
2023/12/26 09:41:13;;;;;;;4.10;1.97;;;9.70;68.50;;;11.07;52.99;97663.44;5031771;28;20045;-70
2023/12/26 09:43:41;;;;;;;4.17;2.87;;;9.70;68.70;;;11.08;53.13;97678.44;5032524;28;20041;-69
2023/12/26 09:46:08;;;;;;;3.30;1.37;;;9.70;69.00;;;11.14;52.88;97686.63;5015280;28;20048;-70
2023/12/26 09:48:36;;;;;;;3.23;1.50;;;9.70;69.00;;;11.15;52.63;97674.16;5032245;28;20041;-70
2023/12/26 09:51:08;;;;;;;2.93;1.07;;;9.70;68.90;;;11.17;52.73;97691.63;5032614;28;20049;-69
2023/12/26 09:53:43;;;;;;;3.33;1.23;;;9.80;68.90;;;11.20;52.92;97709.09;5031419;28;20053;-70
2023/12/26 09:56:12;;;;;;;2.60;1.20;;;9.80;68.80;;;11.25;52.79;97714.78;5031419;28;20046;-69
2023/12/26 09:58:43;;;;;;;2.70;1.63;;;9.90;69.00;;;11.10;53.61;97717.25;5031901;28;20069;-69
2023/12/26 10:01:15;;;;;;;3.57;1.27;;;9.70;69.70;;;11.14;53.56;97715.91;5031346;28;20041;-69
2023/12/26 10:03:45;;;;;;;5.83;1.40;;;9.80;69.80;;;11.15;53.44;97720.28;5031038;28;20520;-69
2023/12/26 10:06:14;;;;;;;3.43;1.10;;;9.80;70.00;;;11.07;53.79;97733.56;5032041;28;20050;-70
2023/12/26 10:08:42;;;;;;;3.87;1.80;;;9.70;71.60;;;11.06;53.87;97726.56;5032016;28;20038;-69
2023/12/26 10:11:13;;;;;;;2.00;1.10;;;9.70;70.90;;;11.07;53.61;97725.59;5031021;28;20060;-70
2023/12/26 10:13:53;;;;;;;3.77;1.30;;;9.70;71.10;;;11.22;53.45;97721.28;5030878;28;20141;-70
2023/12/26 10:16:21;;;;;;;3.37;1.37;;;9.80;70.70;;;11.16;53.78;97726.41;5032020;28;20053;-70
2023/12/26 10:18:50;;;;;;;5.37;2.20;;;9.80;70.70;;;11.28;53.76;97733.09;5030727;28;20169;-70
2023/12/26 10:21:18;;;;;;;2.97;1.10;;;9.90;70.40;;;11.35;53.57;97723.47;5031777;28;20045;-70
2023/12/26 10:23:46;;;;;;;3.37;1.50;;;9.90;70.30;;;11.39;53.21;97713.31;5031845;28;20042;-70
2023/12/26 10:26:15;;;;;;;4.70;1.20;;;9.90;70.30;;;11.28;53.80;97709.13;5030720;28;20417;-69
2023/12/26 10:28:43;;;;;;;1.50;1.07;;;9.90;70.70;;;11.36;53.75;97708.28;5031522;28;20068;-70